Time;durP1;ratioP1;P1;durP2;ratioP2;P2;SDS_P1;SDS_P2;PMS_P1;PMS_P2;Temp;Humidity;BMP_temperature;BMP_pressure;BME280_temperature;BME280_humidity;BME280_pressure;Samples;Min_cycle;Max_cycle;Signal;HPM_P1;HPM_P2
2023/07/26 00:01:11;;;;;;;8.02;4.95;;;13.10;99.90;;;;;;4975584;28;20050;-69
2023/07/26 00:03:36;;;;;;;8.50;5.20;;;13.10;99.90;;;;;;4960173;28;20050;-69
2023/07/26 00:06:02;;;;;;;8.00;5.13;;;13.10;99.90;;;;;;4953184;28;20126;-68
2023/07/26 00:08:28;;;;;;;11.50;5.57;;;13.10;99.90;;;;;;4973264;28;20039;-69
2023/07/26 00:10:53;;;;;;;7.55;5.00;;;13.10;99.90;;;;;;4966026;28;20054;-69
2023/07/26 00:13:19;;;;;;;8.02;5.47;;;13.10;99.90;;;;;;4962659;28;20031;-68
2023/07/26 00:15:45;;;;;;;8.38;5.53;;;13.10;99.90;;;;;;4969889;28;20101;-69
2023/07/26 00:18:10;;;;;;;7.45;5.28;;;13.10;99.90;;;;;;4974823;28;20035;-69
2023/07/26 00:20:36;;;;;;;7.65;5.10;;;13.10;99.90;;;;;;4963948;28;20045;-69
2023/07/26 00:23:02;;;;;;;9.65;5.50;;;13.10;99.90;;;;;;4966271;28;20134;-67
2023/07/26 00:25:28;;;;;;;6.97;4.57;;;13.20;99.90;;;;;;4974851;28;20106;-67
2023/07/26 00:27:54;;;;;;;7.13;5.15;;;13.20;99.90;;;;;;4955028;28;20046;-68
2023/07/26 00:30:20;;;;;;;6.78;5.07;;;13.20;99.90;;;;;;4965292;28;20043;-67
2023/07/26 00:32:45;;;;;;;6.72;5.15;;;13.20;99.90;;;;;;4974630;28;20030;-66
2023/07/26 00:35:28;;;;;;;7.68;5.20;;;13.20;99.90;;;;;;4974719;28;20417;-67
2023/07/26 00:37:54;;;;;;;8.82;5.13;;;13.20;99.90;;;;;;4966085;28;20069;-67
2023/07/26 00:40:19;;;;;;;6.10;4.60;;;13.20;99.90;;;;;;4956322;28;20043;-67
2023/07/26 00:42:45;;;;;;;7.82;5.18;;;13.10;99.90;;;;;;4956858;28;20070;-68
2023/07/26 00:45:11;;;;;;;6.97;5.07;;;13.20;99.90;;;;;;4970689;28;20039;-67
2023/07/26 00:47:37;;;;;;;9.70;5.50;;;13.20;99.90;;;;;;4952692;28;20655;-68
2023/07/26 00:50:04;;;;;;;7.70;5.50;;;13.10;99.90;;;;;;4974109;28;20054;-68
2023/07/26 00:52:31;;;;;;;7.63;5.72;;;13.10;99.90;;;;;;4957042;28;20161;-67
2023/07/26 00:55:00;;;;;;;8.15;5.72;;;13.20;99.90;;;;;;4946067;28;20047;-67
2023/07/26 00:57:25;;;;;;;7.72;6.07;;;13.20;99.90;;;;;;4966545;28;20074;-69
2023/07/26 00:59:52;;;;;;;13.35;6.10;;;13.10;99.90;;;;;;4957412;28;20126;-68
2023/07/26 01:02:17;;;;;;;9.20;6.03;;;13.10;99.90;;;;;;4970501;28;20057;-66
2023/07/26 01:04:43;;;;;;;8.50;6.03;;;13.10;99.90;;;;;;4973198;28;20042;-68
2023/07/26 01:07:25;;;;;;;7.65;6.20;;;13.10;99.90;;;;;;4974527;28;20034;-67
2023/07/26 01:10:13;;;;;;;9.80;6.15;;;13.10;99.90;;;;;;4956672;28;20506;-67
2023/07/26 01:12:49;;;;;;;7.88;6.25;;;13.10;99.90;;;;;;4945234;28;20118;-66
2023/07/26 01:15:16;;;;;;;12.93;6.65;;;13.00;99.90;;;;;;4972180;28;20035;-66
2023/07/26 01:17:41;;;;;;;7.68;6.45;;;13.00;99.90;;;;;;4973759;28;20050;-69
2023/07/26 01:20:07;;;;;;;8.52;6.28;;;13.00;99.90;;;;;;4945722;28;20394;-66
2023/07/26 01:22:33;;;;;;;8.50;6.50;;;13.10;99.90;;;;;;4956240;28;20050;-66
2023/07/26 01:24:58;;;;;;;9.68;6.25;;;13.10;99.90;;;;;;4956372;28;20047;-66
2023/07/26 01:27:24;;;;;;;10.27;6.63;;;13.10;99.90;;;;;;4965274;28;20043;-68
2023/07/26 01:29:54;;;;;;;8.95;6.43;;;13.10;99.90;;;;;;4951337;28;20042;-69
2023/07/26 01:32:22;;;;;;;9.48;6.13;;;13.10;99.90;;;;;;4973637;28;20042;-69
2023/07/26 01:34:48;;;;;;;9.20;6.55;;;13.10;99.90;;;;;;4969467;28;20947;-69
2023/07/26 01:37:15;;;;;;;10.98;6.45;;;13.20;99.90;;;;;;4954905;28;20050;-68
2023/07/26 01:39:41;;;;;;;10.68;7.10;;;13.20;99.90;;;;;;4955799;28;20051;-67
2023/07/26 01:42:07;;;;;;;10.30;6.82;;;13.10;99.90;;;;;;4956209;28;20045;-68
2023/07/26 01:44:37;;;;;;;10.13;7.00;;;13.10;99.90;;;;;;4966426;28;20043;-68
2023/07/26 01:47:02;;;;;;;11.63;6.50;;;13.00;99.90;;;;;;4956091;28;20081;-68
2023/07/26 01:49:28;;;;;;;11.63;7.00;;;13.00;99.90;;;;;;4973030;28;20035;-67
2023/07/26 01:51:54;;;;;;;12.77;7.10;;;13.00;99.90;;;;;;4964832;28;20063;-68
2023/07/26 01:54:20;;;;;;;10.45;6.90;;;13.00;99.90;;;;;;4960030;28;20038;-67
2023/07/26 01:56:46;;;;;;;11.57;6.70;;;12.90;99.90;;;;;;4972950;28;20552;-66
2023/07/26 01:59:11;;;;;;;9.65;6.60;;;12.90;99.90;;;;;;4968177;28;20042;-67
2023/07/26 02:01:37;;;;;;;8.75;6.93;;;12.90;99.90;;;;;;4971317;28;20046;-68
2023/07/26 02:04:03;;;;;;;9.98;6.43;;;12.90;99.90;;;;;;4955436;28;20085;-66
2023/07/26 02:06:28;;;;;;;9.15;6.75;;;12.80;99.90;;;;;;4956192;28;20051;-66
2023/07/26 02:08:54;;;;;;;11.75;6.78;;;12.80;99.90;;;;;;4958214;28;20046;-67
2023/07/26 02:11:20;;;;;;;9.57;6.75;;;12.70;99.90;;;;;;4955182;28;20038;-67
2023/07/26 02:13:45;;;;;;;8.68;6.40;;;12.70;99.90;;;;;;4972925;28;20062;-68
2023/07/26 02:16:11;;;;;;;7.82;6.13;;;12.60;99.90;;;;;;4955857;28;20129;-66
2023/07/26 02:18:37;;;;;;;8.45;6.30;;;12.60;99.90;;;;;;4942638;28;20130;-66
2023/07/26 02:21:02;;;;;;;8.02;6.63;;;12.50;99.90;;;;;;4963331;28;20549;-67
2023/07/26 02:23:28;;;;;;;9.25;6.22;;;12.50;99.90;;;;;;4963624;28;20457;-67
2023/07/26 02:25:54;;;;;;;10.95;6.13;;;12.40;99.90;;;;;;4958598;28;20294;-67
2023/07/26 02:28:19;;;;;;;10.27;6.70;;;12.40;99.90;;;;;;4966910;28;20106;-67
2023/07/26 02:30:45;;;;;;;8.88;6.47;;;12.30;99.90;;;;;;4957972;28;20053;-67
2023/07/26 02:33:10;;;;;;;9.25;5.97;;;12.30;99.90;;;;;;4972487;28;20043;-68
2023/07/26 02:35:36;;;;;;;9.93;5.97;;;12.20;99.90;;;;;;4969270;28;20501;-68
2023/07/26 02:38:02;;;;;;;7.55;5.50;;;12.20;99.90;;;;;;4970576;28;20497;-67
2023/07/26 02:40:28;;;;;;;9.80;6.30;;;12.10;99.90;;;;;;4972749;28;20524;-67
2023/07/26 02:42:54;;;;;;;8.55;6.03;;;12.10;99.90;;;;;;4962884;28;20608;-68
2023/07/26 02:45:19;;;;;;;9.70;6.07;;;12.00;99.90;;;;;;4966194;28;20122;-68
2023/07/26 02:47:45;;;;;;;10.27;6.13;;;12.00;99.90;;;;;;4972311;28;20401;-68
2023/07/26 02:50:10;;;;;;;9.63;5.82;;;11.90;99.90;;;;;;4955546;28;20486;-68
2023/07/26 02:52:36;;;;;;;8.98;6.07;;;11.90;99.90;;;;;;4961578;28;20056;-69
2023/07/26 02:55:02;;;;;;;7.70;6.30;;;11.90;99.90;;;;;;4971651;28;20066;-68
2023/07/26 02:57:28;;;;;;;7.53;6.50;;;11.90;99.90;;;;;;4972312;28;20042;-69
2023/07/26 02:59:53;;;;;;;12.05;6.72;;;11.80;99.90;;;;;;4965888;28;20049;-69
2023/07/26 03:02:19;;;;;;;10.18;6.18;;;11.80;99.90;;;;;;4955167;28;20035;-67
2023/07/26 03:04:45;;;;;;;8.13;6.22;;;11.70;99.90;;;;;;4972602;28;20042;-69
2023/07/26 03:07:10;;;;;;;10.50;6.22;;;11.70;99.90;;;;;;4969658;28;20046;-69
2023/07/26 03:09:36;;;;;;;8.48;5.93;;;11.60;99.90;;;;;;4949254;29;20513;-68
2023/07/26 03:12:01;;;;;;;9.13;5.82;;;11.60;99.90;;;;;;4969137;28;20090;-68
2023/07/26 03:14:27;;;;;;;9.20;6.20;;;11.50;99.90;;;;;;4971656;28;20171;-67
2023/07/26 03:16:53;;;;;;;10.50;6.03;;;11.50;99.90;;;;;;4965876;28;20039;-69
2023/07/26 03:19:18;;;;;;;8.13;5.88;;;11.50;99.90;;;;;;4971751;28;20039;-68
2023/07/26 03:21:44;;;;;;;8.48;6.05;;;11.50;99.90;;;;;;4972170;28;20421;-68
2023/07/26 03:24:09;;;;;;;7.82;5.70;;;11.50;99.90;;;;;;4956937;28;20039;-68
2023/07/26 03:26:35;;;;;;;8.55;5.72;;;11.50;99.90;;;;;;4966089;28;20070;-68
2023/07/26 03:29:01;;;;;;;11.25;6.35;;;11.50;99.90;;;;;;4954514;28;20077;-69
2023/07/26 03:31:26;;;;;;;9.27;6.22;;;11.40;99.90;;;;;;4943813;28;20038;-68
2023/07/26 03:33:52;;;;;;;10.13;6.05;;;11.40;99.90;;;;;;4943937;28;20050;-68
2023/07/26 03:36:18;;;;;;;12.10;6.40;;;11.40;99.90;;;;;;4971843;28;20066;-68
2023/07/26 03:38:43;;;;;;;7.78;6.15;;;11.40;99.90;;;;;;4970593;28;20050;-68
2023/07/26 03:41:09;;;;;;;8.55;6.03;;;11.40;99.90;;;;;;4959317;28;20067;-69
2023/07/26 03:43:35;;;;;;;8.88;5.80;;;11.40;99.90;;;;;;4972087;28;20406;-68
2023/07/26 03:46:00;;;;;;;9.90;6.03;;;11.30;99.90;;;;;;4974339;28;20050;-69
2023/07/26 03:48:27;;;;;;;13.45;6.53;;;11.40;99.90;;;;;;4968447;28;20066;-68
2023/07/26 03:50:53;;;;;;;8.82;5.50;;;11.40;99.90;;;;;;4970543;28;20043;-68
2023/07/26 03:53:18;;;;;;;9.95;5.80;;;11.40;99.90;;;;;;4975138;28;20046;-67
2023/07/26 03:55:44;;;;;;;9.85;6.10;;;11.30;99.90;;;;;;4969419;28;20031;-68
2023/07/26 03:58:10;;;;;;;9.32;5.90;;;11.40;99.90;;;;;;4946287;28;20043;-68
2023/07/26 04:00:36;;;;;;;9.45;5.90;;;11.30;99.90;;;;;;4975083;28;20046;-68
2023/07/26 04:03:02;;;;;;;8.23;6.03;;;11.40;99.90;;;;;;4975480;28;20053;-69
2023/07/26 04:05:28;;;;;;;13.00;6.00;;;11.30;99.90;;;;;;4954406;28;20043;-68
2023/07/26 04:07:53;;;;;;;9.15;6.47;;;11.30;99.90;;;;;;4968756;28;20504;-68
2023/07/26 04:10:19;;;;;;;10.50;5.97;;;11.30;99.90;;;;;;4974215;28;20485;-68
2023/07/26 04:12:45;;;;;;;7.70;6.13;;;11.30;99.90;;;;;;4975337;28;20039;-68
2023/07/26 04:15:11;;;;;;;10.43;6.75;;;11.30;99.90;;;;;;4966103;28;20434;-68
2023/07/26 04:17:36;;;;;;;9.60;6.35;;;11.30;99.90;;;;;;4974314;28;20042;-67
2023/07/26 04:20:02;;;;;;;8.43;5.85;;;11.30;99.90;;;;;;4974988;28;20057;-67
2023/07/26 04:22:28;;;;;;;9.10;6.18;;;11.40;99.90;;;;;;4961420;28;20046;-68
2023/07/26 04:24:54;;;;;;;8.15;5.88;;;11.40;99.90;;;;;;4959400;28;20042;-67
2023/07/26 04:27:20;;;;;;;9.95;5.97;;;11.50;99.90;;;;;;4973859;28;20118;-67
2023/07/26 04:29:46;;;;;;;11.55;5.97;;;11.60;99.90;;;;;;4974917;28;20080;-68
2023/07/26 04:32:11;;;;;;;8.10;5.97;;;11.60;99.90;;;;;;4950843;28;20441;-68
2023/07/26 04:34:37;;;;;;;9.52;6.10;;;11.70;99.90;;;;;;4968117;28;20061;-68
2023/07/26 04:37:02;;;;;;;9.32;6.07;;;11.80;99.90;;;;;;4957464;28;20480;-67
2023/07/26 04:39:28;;;;;;;8.93;5.97;;;11.80;99.90;;;;;;4962135;28;20050;-68
2023/07/26 04:41:54;;;;;;;10.73;5.95;;;11.90;99.90;;;;;;4949161;28;20078;-69
2023/07/26 04:44:19;;;;;;;10.82;5.93;;;11.90;99.90;;;;;;4956803;28;20129;-69
2023/07/26 04:46:45;;;;;;;9.48;6.18;;;11.90;99.90;;;;;;4966761;28;20042;-69
2023/07/26 04:49:11;;;;;;;7.82;6.07;;;12.00;99.90;;;;;;4962657;28;20101;-68
2023/07/26 04:51:36;;;;;;;9.60;6.38;;;12.00;99.90;;;;;;4974082;28;20050;-68
2023/07/26 04:54:02;;;;;;;7.78;5.97;;;12.00;99.90;;;;;;4971133;28;20045;-68
2023/07/26 04:56:28;;;;;;;8.88;6.32;;;12.00;99.90;;;;;;4958984;28;20556;-68
2023/07/26 04:58:54;;;;;;;8.52;6.22;;;12.00;99.90;;;;;;4944955;28;20070;-67
2023/07/26 05:01:19;;;;;;;11.45;7.30;;;12.10;99.90;;;;;;4966182;28;20039;-68
2023/07/26 05:03:45;;;;;;;10.60;6.45;;;12.10;99.90;;;;;;4974013;28;20053;-67
2023/07/26 05:06:11;;;;;;;9.38;6.20;;;12.10;99.90;;;;;;4946184;28;20553;-68
2023/07/26 05:08:37;;;;;;;9.60;6.25;;;12.20;99.90;;;;;;4955276;28;20046;-68
2023/07/26 05:11:03;;;;;;;9.05;6.30;;;12.20;99.90;;;;;;4973960;28;20118;-67
2023/07/26 05:13:28;;;;;;;9.85;6.20;;;12.30;99.90;;;;;;4959942;28;20038;-68
2023/07/26 05:15:54;;;;;;;9.60;6.00;;;12.40;99.90;;;;;;4970157;28;20050;-68
2023/07/26 05:18:20;;;;;;;10.93;6.78;;;12.50;99.90;;;;;;4956543;28;20508;-68
2023/07/26 05:20:49;;;;;;;10.23;6.63;;;12.50;99.90;;;;;;4969517;28;20043;-68
2023/07/26 05:23:15;;;;;;;10.10;6.93;;;12.60;99.90;;;;;;4972373;28;20523;-68
2023/07/26 05:25:41;;;;;;;10.23;6.50;;;12.70;99.90;;;;;;4973428;28;20585;-68
2023/07/26 05:28:07;;;;;;;9.10;6.57;;;12.80;99.90;;;;;;4960359;28;20118;-68
2023/07/26 05:30:38;;;;;;;9.65;6.82;;;12.90;99.90;;;;;;4959632;28;20039;-67
2023/07/26 05:33:03;;;;;;;10.35;6.60;;;13.00;99.90;;;;;;4953406;28;20047;-65
2023/07/26 05:35:29;;;;;;;10.75;7.05;;;13.10;99.90;;;;;;4944742;28;20379;-67
2023/07/26 05:37:55;;;;;;;10.15;6.85;;;13.20;99.90;;;;;;4952309;28;20532;-67
2023/07/26 05:40:20;;;;;;;13.50;7.13;;;13.30;99.90;;;;;;4963131;28;20039;-67
2023/07/26 05:42:46;;;;;;;8.98;7.13;;;13.40;99.90;;;;;;4962521;28;20074;-67
2023/07/26 05:45:11;;;;;;;11.38;6.93;;;13.50;99.90;;;;;;4964214;28;20770;-68
2023/07/26 05:47:38;;;;;;;12.52;6.97;;;13.60;99.90;;;;;;4963908;28;20474;-68
2023/07/26 05:50:07;;;;;;;8.15;6.03;;;13.70;99.90;;;;;;4969288;28;20042;-67
2023/07/26 05:52:33;;;;;;;14.05;7.13;;;13.70;99.90;;;;;;4970195;28;20046;-68
2023/07/26 05:54:59;;;;;;;11.23;6.68;;;13.70;99.90;;;;;;4962188;28;20050;-67
2023/07/26 05:57:24;;;;;;;9.70;6.88;;;13.70;99.90;;;;;;4959848;28;20070;-68
2023/07/26 05:59:50;;;;;;;9.70;6.68;;;13.60;99.90;;;;;;4969623;28;20042;-67
2023/07/26 06:02:15;;;;;;;10.43;6.75;;;13.60;99.90;;;;;;4965978;28;20042;-66
2023/07/26 06:04:41;;;;;;;10.88;6.65;;;13.60;99.90;;;;;;4951432;28;20145;-67
2023/07/26 06:07:07;;;;;;;12.63;6.63;;;13.60;99.90;;;;;;4959655;28;20050;-67
2023/07/26 06:09:36;;;;;;;11.27;6.90;;;13.60;99.90;;;;;;4960549;28;20117;-68
2023/07/26 06:12:02;;;;;;;9.23;6.72;;;13.60;99.90;;;;;;4937861;28;20035;-66
2023/07/26 06:14:29;;;;;;;10.00;6.70;;;13.60;99.90;;;;;;4953834;28;20843;-68
2023/07/26 06:16:54;;;;;;;9.25;6.72;;;13.70;99.90;;;;;;4943728;28;20046;-67
2023/07/26 06:19:21;;;;;;;9.38;7.10;;;13.70;99.90;;;;;;4963070;28;20395;-66
2023/07/26 06:21:46;;;;;;;10.43;7.22;;;13.80;99.90;;;;;;4969034;28;20078;-65
2023/07/26 06:24:12;;;;;;;11.35;7.90;;;13.80;99.90;;;;;;4965931;28;20541;-68
2023/07/26 06:26:38;;;;;;;9.40;7.47;;;13.90;99.90;;;;;;4955185;28;20040;-67
2023/07/26 06:29:04;;;;;;;10.43;7.10;;;14.00;99.90;;;;;;4959961;28;20046;-67
2023/07/26 06:31:30;;;;;;;12.65;7.70;;;14.00;99.90;;;;;;4960149;28;20035;-69
2023/07/26 06:33:55;;;;;;;11.20;7.35;;;14.10;99.90;;;;;;4960880;28;20042;-66
2023/07/26 06:36:21;;;;;;;9.48;7.25;;;14.10;99.90;;;;;;4944761;28;20115;-67
2023/07/26 06:38:47;;;;;;;11.48;7.47;;;14.10;99.90;;;;;;4966509;28;20047;-65
2023/07/26 06:41:12;;;;;;;11.45;7.90;;;14.10;99.90;;;;;;4969494;28;20039;-67
2023/07/26 06:43:38;;;;;;;11.52;7.55;;;14.10;99.90;;;;;;4969141;28;20050;-68
2023/07/26 06:46:04;;;;;;;12.90;7.57;;;14.30;99.90;;;;;;4949339;28;20047;-67
2023/07/26 06:48:29;;;;;;;13.23;7.57;;;14.30;99.90;;;;;;4956712;28;20034;-67
2023/07/26 06:50:55;;;;;;;10.77;7.38;;;14.20;99.90;;;;;;4961062;28;20098;-71
2023/07/26 06:53:26;;;;;;;12.70;7.55;;;14.20;99.90;;;;;;4940303;28;20183;-67
2023/07/26 06:55:51;;;;;;;10.35;7.40;;;14.30;99.90;;;;;;4960044;28;20074;-67
2023/07/26 06:58:17;;;;;;;13.20;8.23;;;14.30;99.90;;;;;;4957565;28;20171;-66
2023/07/26 07:00:43;;;;;;;13.32;7.18;;;14.40;99.90;;;;;;4943144;28;20055;-68
2023/07/26 07:03:08;;;;;;;10.38;7.38;;;14.50;99.90;;;;;;4950913;28;20050;-68
2023/07/26 07:05:35;;;;;;;9.45;7.18;;;14.70;99.90;;;;;;4959487;28;20051;-67
2023/07/26 07:08:01;;;;;;;9.57;7.47;;;14.80;99.90;;;;;;4956379;28;20494;-68
2023/07/26 07:10:26;;;;;;;11.57;7.82;;;15.00;99.90;;;;;;4955097;28;20050;-67
2023/07/26 07:12:55;;;;;;;9.30;7.43;;;15.10;99.90;;;;;;4959474;28;20038;-66
2023/07/26 07:15:20;;;;;;;9.50;7.65;;;15.20;99.90;;;;;;4925891;28;20134;-68
2023/07/26 07:17:46;;;;;;;11.60;7.70;;;15.10;99.90;;;;;;4958030;28;20182;-66
2023/07/26 07:20:11;;;;;;;12.35;7.22;;;15.10;99.90;;;;;;4963897;28;20043;-68
2023/07/26 07:22:37;;;;;;;9.57;7.43;;;15.00;99.90;;;;;;4957748;28;20080;-69
2023/07/26 07:25:03;;;;;;;10.02;7.30;;;14.90;99.90;;;;;;4971209;28;20062;-68
2023/07/26 07:27:29;;;;;;;9.77;6.85;;;14.80;99.90;;;;;;4961794;28;20045;-69
2023/07/26 07:29:55;;;;;;;10.98;7.30;;;14.80;99.90;;;;;;4951349;28;20138;-69
2023/07/26 07:32:21;;;;;;;10.30;7.18;;;14.80;99.90;;;;;;4974479;28;20058;-69
2023/07/26 07:34:47;;;;;;;10.30;7.25;;;14.80;99.90;;;;;;4959663;28;20050;-70
2023/07/26 07:37:12;;;;;;;10.95;7.05;;;14.80;99.90;;;;;;4962677;28;20397;-67
2023/07/26 07:39:38;;;;;;;11.13;6.85;;;14.70;99.90;;;;;;4947987;28;20577;-69
2023/07/26 07:42:04;;;;;;;10.75;7.57;;;14.70;99.90;;;;;;4958014;28;20043;-67
2023/07/26 07:44:30;;;;;;;10.10;7.20;;;14.60;99.90;;;;;;4944190;28;20043;-68
2023/07/26 07:46:56;;;;;;;11.70;7.28;;;14.60;99.90;;;;;;4961163;28;20050;-67
2023/07/26 07:49:22;;;;;;;9.90;7.32;;;14.50;99.90;;;;;;4962651;28;20300;-70
2023/07/26 07:51:48;;;;;;;10.98;8.00;;;14.50;99.90;;;;;;4941360;28;20537;-68
2023/07/26 07:54:14;;;;;;;11.35;7.55;;;14.40;99.90;;;;;;4964502;28;20130;-68
2023/07/26 07:56:40;;;;;;;10.77;7.65;;;14.40;99.90;;;;;;4947138;28;20042;-68
2023/07/26 07:59:06;;;;;;;12.25;7.90;;;14.30;99.90;;;;;;4933672;28;20050;-64
2023/07/26 08:01:32;;;;;;;11.05;7.40;;;14.30;99.90;;;;;;4961142;28;20053;-68
2023/07/26 08:03:59;;;;;;;10.45;8.10;;;14.20;99.90;;;;;;4940448;28;20051;-69
2023/07/26 08:06:25;;;;;;;12.07;8.20;;;14.30;99.90;;;;;;4959508;28;22125;-64
2023/07/26 08:08:51;;;;;;;11.13;7.20;;;14.40;99.90;;;;;;4938457;28;20046;-68
2023/07/26 08:11:18;;;;;;;13.25;7.53;;;14.40;99.90;;;;;;4962098;28;20043;-68
2023/07/26 08:13:44;;;;;;;10.95;7.55;;;14.30;99.90;;;;;;4961503;28;20118;-68
2023/07/26 08:16:10;;;;;;;10.10;6.57;;;14.40;99.90;;;;;;4935320;28;20044;-66
2023/07/26 08:18:37;;;;;;;9.70;6.85;;;14.50;99.90;;;;;;4943576;28;20501;-68
2023/07/26 08:21:03;;;;;;;7.70;5.72;;;14.60;99.90;;;;;;4946292;28;20047;-68
2023/07/26 08:23:31;;;;;;;7.38;5.30;;;14.70;99.90;;;;;;4941918;28;20057;-69
2023/07/26 08:26:04;;;;;;;7.00;4.75;;;14.80;99.90;;;;;;4931818;28;20078;-66
2023/07/26 08:28:30;;;;;;;8.15;5.00;;;14.80;99.90;;;;;;4941179;28;20035;-67
2023/07/26 08:30:57;;;;;;;9.55;4.85;;;14.90;99.90;;;;;;4957433;28;20921;-67
2023/07/26 08:33:23;;;;;;;5.40;3.85;;;14.90;99.90;;;;;;4953795;28;20043;-66
2023/07/26 08:35:49;;;;;;;5.25;3.80;;;15.00;99.90;;;;;;4957633;28;20047;-66
2023/07/26 08:38:14;;;;;;;4.82;3.33;;;15.10;99.90;;;;;;4949383;28;20043;-66
2023/07/26 08:40:48;;;;;;;3.15;2.40;;;15.30;99.90;;;;;;4949200;28;20071;-67
2023/07/26 08:43:17;;;;;;;4.85;2.60;;;15.60;99.90;;;;;;4949820;28;20577;-68
2023/07/26 08:45:43;;;;;;;4.07;2.60;;;15.90;99.90;;;;;;4956844;28;20123;-67
2023/07/26 08:48:09;;;;;;;5.43;2.40;;;16.00;99.90;;;;;;4958772;28;20427;-67
2023/07/26 08:50:39;;;;;;;3.75;2.58;;;15.90;99.90;;;;;;4950225;28;20143;-67
2023/07/26 08:53:06;;;;;;;3.28;2.20;;;15.90;99.90;;;;;;4959950;28;20094;-69
2023/07/26 08:55:32;;;;;;;3.50;2.30;;;16.00;99.90;;;;;;4962916;28;20034;-67
2023/07/26 08:57:59;;;;;;;5.55;2.63;;;16.10;99.90;;;;;;4950199;28;20039;-66
2023/07/26 09:00:28;;;;;;;4.07;2.60;;;16.10;99.90;;;;;;4937849;28;20050;-66
2023/07/26 09:02:57;;;;;;;5.07;2.90;;;16.10;99.90;;;;;;4963555;28;20165;-67
2023/07/26 09:05:23;;;;;;;4.28;2.90;;;16.20;99.90;;;;;;4939358;28;20069;-67
2023/07/26 09:07:51;;;;;;;4.35;3.13;;;16.30;99.90;;;;;;4937101;28;20050;-67
2023/07/26 09:10:31;;;;;;;4.43;2.90;;;16.30;99.90;;;;;;4944318;28;20078;-67
2023/07/26 09:13:15;;;;;;;5.95;3.20;;;16.40;99.90;;;;;;4942908;28;20064;-67
2023/07/26 09:15:42;;;;;;;5.10;3.38;;;16.50;99.90;;;;;;4952924;28;20409;-68
2023/07/26 09:18:08;;;;;;;5.53;3.30;;;16.50;99.90;;;;;;4934250;28;20098;-68
2023/07/26 09:20:36;;;;;;;5.45;3.58;;;16.60;99.90;;;;;;4955075;28;20054;-70
2023/07/26 09:23:05;;;;;;;5.85;3.65;;;16.50;99.90;;;;;;4946426;28;20051;-67
2023/07/26 09:25:42;;;;;;;5.38;4.05;;;16.70;99.90;;;;;;4957939;28;20046;-70
2023/07/26 09:28:11;;;;;;;5.90;4.05;;;16.80;99.90;;;;;;4961115;28;20043;-66
2023/07/26 09:30:38;;;;;;;7.13;4.13;;;16.70;99.90;;;;;;4930528;28;20051;-67
2023/07/26 09:33:06;;;;;;;5.68;3.95;;;16.90;99.90;;;;;;4958380;28;20046;-68
2023/07/26 09:35:40;;;;;;;5.93;3.70;;;17.10;99.90;;;;;;4953400;28;20186;-68
2023/07/26 09:38:16;;;;;;;6.97;4.45;;;17.10;99.90;;;;;;4951663;28;20050;-70
2023/07/26 09:40:42;;;;;;;5.20;3.90;;;17.30;99.90;;;;;;4936796;28;20104;-70
2023/07/26 09:43:07;;;;;;;8.65;4.70;;;17.30;99.90;;;;;;4943122;28;20525;-67
2023/07/26 09:45:33;;;;;;;5.85;4.00;;;17.30;99.90;;;;;;4963974;28;20039;-68
2023/07/26 09:48:07;;;;;;;6.78;4.35;;;17.30;99.90;;;;;;4951752;28;20059;-69
2023/07/26 09:50:35;;;;;;;5.97;4.30;;;17.30;99.90;;;;;;4948506;28;20042;-66
2023/07/26 09:53:05;;;;;;;6.25;4.68;;;17.30;99.90;;;;;;4961041;28;20058;-68
2023/07/26 09:55:33;;;;;;;6.45;4.38;;;17.40;99.90;;;;;;4939079;28;20039;-67
2023/07/26 09:58:00;;;;;;;6.93;4.10;;;17.30;99.90;;;;;;4947059;28;20085;-67
2023/07/26 10:00:28;;;;;;;6.53;4.47;;;17.50;99.90;;;;;;4960961;28;20051;-67
2023/07/26 10:02:57;;;;;;;8.40;4.47;;;17.60;99.90;;;;;;4964230;28;20046;-69
2023/07/26 10:05:25;;;;;;;6.55;3.60;;;17.70;99.90;;;;;;4962180;28;20062;-69
2023/07/26 10:07:52;;;;;;;5.97;4.13;;;17.90;99.90;;;;;;4950509;28;20054;-68
2023/07/26 10:10:19;;;;;;;5.78;4.30;;;18.10;99.90;;;;;;4965373;28;20196;-69
2023/07/26 10:12:46;;;;;;;7.65;4.78;;;18.10;99.90;;;;;;4951922;28;20051;-67
2023/07/26 10:15:16;;;;;;;6.60;4.28;;;18.20;99.90;;;;;;4955050;28;20397;-68
2023/07/26 10:17:47;;;;;;;7.32;4.35;;;18.10;99.90;;;;;;4929588;28;20035;-68
2023/07/26 10:20:14;;;;;;;6.05;3.90;;;18.10;99.90;;;;;;4963258;28;20390;-68
2023/07/26 10:22:42;;;;;;;6.38;3.95;;;18.30;99.90;;;;;;4952966;28;20049;-66
2023/07/26 10:25:08;;;;;;;7.78;4.90;;;18.30;99.90;;;;;;4960258;28;20526;-67
2023/07/26 10:27:35;;;;;;;7.00;4.43;;;18.10;99.90;;;;;;4959613;28;20129;-66
2023/07/26 10:30:01;;;;;;;6.90;4.40;;;18.10;99.90;;;;;;4954171;28;20047;-66
2023/07/26 10:32:27;;;;;;;8.20;4.38;;;18.30;99.90;;;;;;4946361;28;20856;-69
2023/07/26 10:35:02;;;;;;;6.07;3.83;;;18.40;99.90;;;;;;4963485;28;20092;-64
2023/07/26 10:37:33;;;;;;;5.47;3.78;;;18.80;99.90;;;;;;4951917;28;20041;-67
2023/07/26 10:40:04;;;;;;;5.80;4.00;;;18.90;99.90;;;;;;4959003;28;20057;-69
2023/07/26 10:42:30;;;;;;;6.50;4.50;;;19.00;99.90;;;;;;4942679;28;20038;-67
2023/07/26 10:45:01;;;;;;;6.15;3.30;;;18.80;99.90;;;;;;4945927;28;20960;-69
2023/07/26 10:47:28;;;;;;;6.00;3.88;;;18.80;99.90;;;;;;4951606;28;20039;-66
2023/07/26 10:49:55;;;;;;;5.50;3.88;;;18.80;99.90;;;;;;4944932;28;20822;-69
2023/07/26 10:52:21;;;;;;;11.32;3.90;;;18.70;99.90;;;;;;4947307;28;20122;-69
2023/07/26 10:54:51;;;;;;;5.15;3.45;;;18.60;99.90;;;;;;4953789;28;20045;-68
2023/07/26 10:57:21;;;;;;;4.93;3.33;;;18.50;99.90;;;;;;4950287;28;20043;-68
2023/07/26 11:00:06;;;;;;;6.30;3.63;;;18.50;99.90;;;;;;4957926;28;20065;-69
2023/07/26 11:02:38;;;;;;;6.45;3.80;;;18.60;99.90;;;;;;4966059;28;20035;-68
2023/07/26 11:05:29;;;;;;;5.35;4.13;;;18.90;99.90;;;;;;4941916;28;20078;-71
2023/07/26 11:08:07;;;;;;;6.30;3.78;;;19.00;99.90;;;;;;4947445;28;20130;-68
2023/07/26 11:10:35;;;;;;;10.35;3.40;;;19.00;99.90;;;;;;4961368;28;20130;-67
2023/07/26 11:13:15;;;;;;;5.40;3.30;;;19.40;99.90;;;;;;4961682;28;20143;-68
2023/07/26 11:15:50;;;;;;;5.32;3.15;;;19.30;99.90;;;;;;4957242;28;20054;-69
2023/07/26 11:18:19;;;;;;;4.95;3.22;;;19.30;99.90;;;;;;4948182;28;21137;-70
2023/07/26 11:20:49;;;;;;;4.90;3.22;;;19.00;99.90;;;;;;4947724;28;20130;-67
2023/07/26 11:23:16;;;;;;;4.72;3.45;;;18.70;99.90;;;;;;4960244;28;20039;-71
2023/07/26 11:25:42;;;;;;;6.25;4.00;;;18.30;99.90;;;;;;4963919;28;20543;-71
2023/07/26 11:28:08;;;;;;;5.85;3.55;;;17.80;99.90;;;;;;4964366;28;20035;-70
2023/07/26 11:30:38;;;;;;;4.78;3.13;;;16.90;99.90;;;;;;4948402;28;20065;-66
2023/07/26 11:33:04;;;;;;;9.05;4.80;;;16.40;99.90;;;;;;4938701;28;20105;-67
2023/07/26 11:35:41;;;;;;;8.43;4.97;;;15.80;99.90;;;;;;4965026;28;20038;-69
2023/07/26 11:38:12;;;;;;;9.15;5.80;;;15.70;99.90;;;;;;4971328;28;20042;-68
2023/07/26 11:40:42;;;;;;;7.27;4.20;;;15.50;99.90;;;;;;4956738;28;20062;-67
2023/07/26 11:43:09;;;;;;;6.25;3.10;;;15.40;99.90;;;;;;4957687;28;20039;-69
2023/07/26 11:45:41;;;;;;;4.35;2.40;;;15.30;99.90;;;;;;4944539;28;20161;-67
2023/07/26 11:48:10;;;;;;;3.67;2.33;;;15.30;99.90;;;;;;4953732;28;20089;-67
2023/07/26 11:50:37;;;;;;;5.50;2.38;;;15.60;99.90;;;;;;4956621;28;20109;-68
2023/07/26 11:53:09;;;;;;;3.55;1.88;;;16.00;99.90;;;;;;4962643;28;20062;-67
2023/07/26 11:55:38;;;;;;;4.35;2.40;;;16.50;99.90;;;;;;4959180;28;20140;-70
2023/07/26 11:58:08;;;;;;;5.25;2.35;;;16.70;99.90;;;;;;4959213;28;20036;-67
2023/07/26 12:00:35;;;;;;;4.20;2.40;;;16.90;99.90;;;;;;4944834;28;20043;-72
2023/07/26 12:03:02;;;;;;;4.85;2.50;;;17.10;99.90;;;;;;4966143;28;20054;-70
2023/07/26 12:05:28;;;;;;;4.25;2.38;;;17.40;99.90;;;;;;4966017;28;20043;-68
2023/07/26 12:08:05;;;;;;;3.17;2.28;;;17.80;99.90;;;;;;4947220;28;20093;-71
2023/07/26 12:10:42;;;;;;;3.40;2.00;;;18.20;99.90;;;;;;4942183;28;20039;-67
2023/07/26 12:13:18;;;;;;;2.97;1.95;;;18.20;99.90;;;;;;4962911;28;20133;-67
2023/07/26 12:16:01;;;;;;;3.72;2.10;;;18.10;99.90;;;;;;4962514;28;20523;-67
2023/07/26 12:18:27;;;;;;;3.50;2.05;;;18.30;99.90;;;;;;4940486;28;20462;-67
2023/07/26 12:20:58;;;;;;;4.00;2.30;;;18.30;99.90;;;;;;4967085;28;20053;-68
2023/07/26 12:23:25;;;;;;;3.67;2.20;;;18.30;99.90;;;;;;4940902;28;20093;-70
2023/07/26 12:26:00;;;;;;;4.25;2.60;;;18.30;99.90;;;;;;4955684;28;20119;-69
2023/07/26 12:28:26;;;;;;;5.22;2.70;;;18.30;99.90;;;;;;4942845;28;20046;-71
2023/07/26 12:30:56;;;;;;;3.83;2.83;;;18.10;99.90;;;;;;4962078;28;20046;-70
2023/07/26 12:33:23;;;;;;;4.97;3.00;;;18.20;99.90;;;;;;4960392;28;20039;-69
2023/07/26 12:35:52;;;;;;;4.00;2.75;;;18.40;99.90;;;;;;4949008;28;20039;-72
2023/07/26 12:38:18;;;;;;;5.13;2.50;;;18.60;99.90;;;;;;4965380;28;20039;-67
2023/07/26 12:40:45;;;;;;;4.03;2.38;;;18.90;99.90;;;;;;4952752;28;20047;-67
2023/07/26 12:43:25;;;;;;;3.65;2.60;;;18.90;99.90;;;;;;4966893;28;20335;-71